Brahms — 9HA3558 — position and weather

sailwx.info

Track history (hours):
 
Tides and Currents Weather Stations Pressure Air Temp Water Temp Dewpoint Dewpoint Depression Visibility Wind Speed Wind Dir Waves Ship Positions

Brahms

Last reported at 2017-Oct-19 20:41 UTC. Time now 2017-Oct-19 23:30 UTC.
Position N 50°26' W 000°26'.

Length 225 m; draft 14.3 m.

Type: Other ship. MMSI: 229731000.

Date/timePositionNaut miles runAvg speedWind from/ knotsBaromVisibWave heightAir tempDewpointWater temp
2017-Oct-19 20:41N 50°26' W 000°26'1 8.2
2017-Oct-19 20:30N 50°26' W 000°24'4 8.4
2017-Oct-19 20:00N 50°27' W 000°18'4 8.7
2017-Oct-19 19:30N 50°28' W 000°11'5 9.6
2017-Oct-19 18:58N 50°29' W 000°03'510.1
2017-Oct-19 18:30N 50°30' E 000°04'611.0
2017-Oct-19 18:00N 50°32' E 000°12'611.7
2017-Oct-19 17:30N 50°33' E 000°21'612.3
2017-Oct-19 17:00N 50°35' E 000°30'612.5
2017-Oct-19 16:30N 50°37' E 000°39'612.5
2017-Oct-19 16:00N 50°41' E 000°47'612.4
2017-Oct-19 15:30N 50°45' E 000°55'612.0
2017-Oct-19 15:00N 50°48' E 001°03'611.5
2017-Oct-19 14:29N 50°52' E 001°11'510.9
2017-Oct-19 14:00N 50°55' E 001°17'5 9.9
2017-Oct-19 13:30N 50°58' E 001°23'5 9.1
2017-Oct-19 13:00N 51°02' E 001°28'4 8.5
2017-Oct-19 12:30N 51°05' E 001°33'4 8.2
2017-Oct-19 12:00N 51°08' E 001°37'4 8.7
2017-Oct-19 11:30N 51°11' E 001°42'5 9.4
2017-Oct-19 11:00N 51°14' E 001°47'510.1
2017-Oct-19 10:30N 51°18' E 001°51'611.0
2017-Oct-19 10:00N 51°23' E 001°56'612.2
2017-Oct-19 09:30N 51°28' E 002°01'713.3
2017-Oct-19 09:00N 51°33' E 002°08'713.4
2017-Oct-19 08:30N 51°39' E 002°15'713.7
2017-Oct-19 08:00N 51°44' E 002°22'713.7
2017-Oct-19 07:30N 51°49' E 002°29'713.1
2017-Oct-19 07:00N 51°54' E 002°35'713.0
2017-Oct-19 06:30N 52°01' E 002°37'812.6
2017-Oct-19 05:51N 52°09' E 002°40'2111.4
2017-Oct-19 04:00N 52°28' E 002°54'413 9.3
2017-Oct-17 07:28N 57°48' E 010°31'510.7
2017-Oct-17 07:00N 57°49' E 010°41'610.3
2017-Oct-17 06:27N 57°46' E 010°50'510.2
2017-Oct-17 05:59N 57°41' E 010°49'3 7.0
2017-Oct-17 05:30N 57°40' E 010°42'0 0.5
2017-Oct-17 04:52N 57°40' E 010°42'0 0.1
2017-Oct-17 04:22N 57°40' E 010°42'0 0.0
2017-Oct-17 03:49N 57°40' E 010°42'0 0.0
2017-Oct-17 03:16N 57°40' E 010°42'0 0.0
2017-Oct-17 02:55N 57°40' E 010°42'0 0.0
2017-Oct-17 02:22N 57°40' E 010°42'0 0.0
2017-Oct-17 01:58N 57°40' E 010°42'0 0.0
2017-Oct-17 01:28N 57°40' E 010°42'0 0.0
2017-Oct-17 00:46N 57°40' E 010°42'0 0.0
2017-Oct-17 00:28N 57°40' E 010°42'0 0.0
2017-Oct-16 23:58N 57°40' E 010°42'0 0.0
2017-Oct-16 23:25N 57°40' E 010°42'0 0.0
2017-Oct-16 22:49N 57°40' E 010°42'0 0.1
2017-Oct-16 22:16N 57°40' E 010°42'0 0.7
2017-Oct-16 22:00N 57°40' E 010°43'3 5.2
2017-Oct-16 21:29N 57°40' E 010°48'4 8.3
2017-Oct-16 21:00N 57°39' E 010°55'611.3
2017-Oct-16 20:30N 57°38' E 011°05'612.2
2017-Oct-16 20:00N 57°34' E 011°14'612.3
2017-Oct-16 19:30N 57°30' E 011°22'611.8
2017-Oct-16 19:00N 57°25' E 011°28'611.7
2017-Oct-16 18:30N 57°19' E 011°32'611.7
2017-Oct-16 18:00N 57°14' E 011°36'611.6
2017-Oct-16 17:29N 57°08' E 011°40'611.3
2017-Oct-16 16:59N 57°03' E 011°42'611.6
2017-Oct-16 16:30N 56°57' E 011°45'711.3
2017-Oct-16 15:56N 56°51' E 011°49'810.0
2017-Oct-16 15:07N 56°43' E 011°51'311.0
2017-Oct-16 14:50N 56°40' E 011°48'1011.6
2017-Oct-16 13:58N 56°32' E 011°39'6610.9
2017-Oct-16 07:57N 55°32' E 010°52'511.3
2017-Oct-16 07:30N 55°27' E 010°56'710.3
2017-Oct-16 06:46N 55°21' E 011°02'3 8.8
2017-Oct-16 06:28N 55°18' E 011°03'610.7
2017-Oct-16 05:56N 55°13' E 011°06'511.8
2017-Oct-16 05:31N 55°09' E 011°00'612.2
2017-Oct-16 05:01N 55°03' E 010°60'612.2
2017-Oct-16 04:31N 54°58' E 010°56'612.8
2017-Oct-16 04:01N 54°52' E 010°50'612.6
2017-Oct-16 03:31N 54°46' E 010°48'5 9.4
2017-Oct-16 03:01N 54°41' E 010°47'4 8.7
2017-Oct-16 02:31N 54°39' E 010°52'611.4
2017-Oct-16 02:01N 54°36' E 011°01'611.5
2017-Oct-16 01:30N 54°35' E 011°11'611.6
2017-Oct-16 01:01N 54°33' E 011°20'611.3
2017-Oct-16 00:31N 54°31' E 011°29'611.8
2017-Oct-16 00:00N 54°28' E 011°38'611.7
2017-Oct-15 23:31N 54°26' E 011°48'711.8
2017-Oct-15 22:58N 54°27' E 011°59'510.8
2017-Oct-15 22:31N 54°27' E 012°07'5 9.1
2017-Oct-15 22:00N 54°30' E 012°13'510.1
2017-Oct-15 21:31N 54°35' E 012°16'4 7.7
2017-Oct-15 21:01N 54°38' E 012°20'4 7.5
2017-Oct-15 20:31N 54°40' E 012°25'3 6.4
2017-Oct-15 20:01N 54°41' E 012°30'4 7.9
2017-Oct-15 19:28N 54°44' E 012°36'4 7.7
2017-Oct-15 19:01N 54°46' E 012°41'5 9.5
2017-Oct-15 18:27N 54°48' E 012°50'511.7
2017-Oct-15 18:00N 54°49' E 012°58'611.8
2017-Oct-15 17:31N 54°52' E 013°08'611.6
2017-Oct-15 16:59N 54°54' E 013°18'611.4
2017-Oct-15 16:29N 54°56' E 013°27'611.2
2017-Oct-15 15:55N 54°58' E 013°37'510.8
2017-Oct-15 15:30N 54°60' E 013°45'811.3
2017-Oct-15 14:51N 55°02' E 013°57'1211.4
2017-Oct-15 13:49N 55°10' E 014°13'411.7
2017-Oct-15 13:29N 55°13' E 014°17'611.7
2017-Oct-15 13:00N 55°17' E 014°23'611.8
2017-Oct-15 12:30N 55°22' E 014°29'611.9
2017-Oct-15 12:00N 55°26' E 014°36'611.6
2017-Oct-15 11:30N 55°29' E 014°45'611.6
2017-Oct-15 11:01N 55°32' E 014°54'611.7
2017-Oct-15 10:31N 55°34' E 015°03'611.7
2017-Oct-15 10:01N 55°37' E 015°12'611.8
2017-Oct-15 09:31N 55°39' E 015°23'611.6
2017-Oct-15 09:00N 55°40' E 015°32'611.6
2017-Oct-15 08:30N 55°42' E 015°42'611.7
2017-Oct-15 08:01N 55°43' E 015°53'611.7
2017-Oct-15 07:30N 55°45' E 016°03'611.6
2017-Oct-15 07:01N 55°46' E 016°13'611.4
2017-Oct-15 06:30N 55°47' E 016°22'611.3
2017-Oct-15 06:01N 55°49' E 016°32'611.3
2017-Oct-15 05:30N 55°50' E 016°42'611.3
2017-Oct-15 05:00N 55°51' E 016°52'611.3
2017-Oct-15 04:30N 55°53' E 017°02'611.4
2017-Oct-15 04:00N 55°54' E 017°11'811.1
2017-Oct-15 03:19N 55°56' E 017°25'2111.2
2017-Oct-15 01:25N 56°06' E 017°59'  
2017-Oct-10 06:20N 55°39' E 015°41'3 7.8
2017-Oct-10 06:00N 55°38' E 015°38'611.2
2017-Oct-10 05:31N 55°35' E 015°29'611.9
2017-Oct-10 05:01N 55°32' E 015°20'3 5.1
2017-Oct-10 04:29N 55°31' E 015°17'1 1.2
2017-Oct-10 03:59N 55°31' E 015°16'1 1.2
2017-Oct-10 03:29N 55°31' E 015°15'1 1.2
2017-Oct-10 02:59N 55°31' E 015°14'1 1.2
2017-Oct-10 02:29N 55°32' E 015°13'1 1.2
2017-Oct-10 01:59N 55°32' E 015°12'1 1.3
2017-Oct-10 01:29N 55°32' E 015°11'1 1.3
2017-Oct-10 00:59N 55°32' E 015°09'1 1.3
2017-Oct-10 00:29N 55°33' E 015°08'1 1.4
2017-Oct-10 00:00N 55°32' E 015°07'4 7.6
2017-Oct-09 23:31N 55°31' E 015°01'5 9.3
2017-Oct-09 23:00N 55°28' E 014°54'5 9.3
2017-Oct-09 22:30N 55°26' E 014°47'5 9.4
2017-Oct-09 22:00N 55°24' E 014°40'5 9.2
2017-Oct-09 21:30N 55°20' E 014°34'5 9.2
2017-Oct-09 21:01N 55°17' E 014°29'  
Track history (hours):
 
Tides and Currents Weather Stations Pressure Air Temp Water Temp Dewpoint Dewpoint Depression Visibility Wind Speed Wind Dir Waves Ship Positions

Brahms

Last reported at 2017-Oct-19 20:41 UTC. Time now 2017-Oct-19 23:30 UTC.
Position N 50°26' W 000°26'.

Length 225 m; draft 14.3 m.

Type: Other ship. MMSI: 229731000.

Date/timePositionNaut miles runAvg speedWind from/ knotsBaromVisibWave heightAir tempDewpointWater temp
2017-Oct-19 20:41N 50°26' W 000°26'1 8.2
2017-Oct-19 20:30N 50°26' W 000°24'4 8.4
2017-Oct-19 20:00N 50°27' W 000°18'4 8.7
2017-Oct-19 19:30N 50°28' W 000°11'5 9.6
2017-Oct-19 18:58N 50°29' W 000°03'510.1
2017-Oct-19 18:30N 50°30' E 000°04'611.0
2017-Oct-19 18:00N 50°32' E 000°12'611.7
2017-Oct-19 17:30N 50°33' E 000°21'612.3
2017-Oct-19 17:00N 50°35' E 000°30'612.5
2017-Oct-19 16:30N 50°37' E 000°39'612.5
2017-Oct-19 16:00N 50°41' E 000°47'612.4
2017-Oct-19 15:30N 50°45' E 000°55'612.0
2017-Oct-19 15:00N 50°48' E 001°03'611.5
2017-Oct-19 14:29N 50°52' E 001°11'510.9
2017-Oct-19 14:00N 50°55' E 001°17'5 9.9
2017-Oct-19 13:30N 50°58' E 001°23'5 9.1
2017-Oct-19 13:00N 51°02' E 001°28'4 8.5
2017-Oct-19 12:30N 51°05' E 001°33'4 8.2
2017-Oct-19 12:00N 51°08' E 001°37'4 8.7
2017-Oct-19 11:30N 51°11' E 001°42'5 9.4
2017-Oct-19 11:00N 51°14' E 001°47'510.1
2017-Oct-19 10:30N 51°18' E 001°51'611.0
2017-Oct-19 10:00N 51°23' E 001°56'612.2
2017-Oct-19 09:30N 51°28' E 002°01'713.3
2017-Oct-19 09:00N 51°33' E 002°08'713.4
2017-Oct-19 08:30N 51°39' E 002°15'713.7
2017-Oct-19 08:00N 51°44' E 002°22'713.7
2017-Oct-19 07:30N 51°49' E 002°29'713.1
2017-Oct-19 07:00N 51°54' E 002°35'713.0
2017-Oct-19 06:30N 52°01' E 002°37'812.6
2017-Oct-19 05:51N 52°09' E 002°40'2111.4
2017-Oct-19 04:00N 52°28' E 002°54'413 9.3
2017-Oct-17 07:28N 57°48' E 010°31'510.7
2017-Oct-17 07:00N 57°49' E 010°41'610.3
2017-Oct-17 06:27N 57°46' E 010°50'510.2
2017-Oct-17 05:59N 57°41' E 010°49'3 7.0
2017-Oct-17 05:30N 57°40' E 010°42'0 0.5
2017-Oct-17 04:52N 57°40' E 010°42'0 0.1
2017-Oct-17 04:22N 57°40' E 010°42'0 0.0
2017-Oct-17 03:49N 57°40' E 010°42'0 0.0
2017-Oct-17 03:16N 57°40' E 010°42'0 0.0
2017-Oct-17 02:55N 57°40' E 010°42'0 0.0
2017-Oct-17 02:22N 57°40' E 010°42'0 0.0
2017-Oct-17 01:58N 57°40' E 010°42'0 0.0
2017-Oct-17 01:28N 57°40' E 010°42'0 0.0
2017-Oct-17 00:46N 57°40' E 010°42'0 0.0
2017-Oct-17 00:28N 57°40' E 010°42'0 0.0
2017-Oct-16 23:58N 57°40' E 010°42'0 0.0
2017-Oct-16 23:25N 57°40' E 010°42'0 0.0
2017-Oct-16 22:49N 57°40' E 010°42'0 0.1
2017-Oct-16 22:16N 57°40' E 010°42'0 0.7
2017-Oct-16 22:00N 57°40' E 010°43'3 5.2
2017-Oct-16 21:29N 57°40' E 010°48'4 8.3
2017-Oct-16 21:00N 57°39' E 010°55'611.3
2017-Oct-16 20:30N 57°38' E 011°05'612.2
2017-Oct-16 20:00N 57°34' E 011°14'612.3
2017-Oct-16 19:30N 57°30' E 011°22'611.8
2017-Oct-16 19:00N 57°25' E 011°28'611.7
2017-Oct-16 18:30N 57°19' E 011°32'611.7
2017-Oct-16 18:00N 57°14' E 011°36'611.6
2017-Oct-16 17:29N 57°08' E 011°40'611.3
2017-Oct-16 16:59N 57°03' E 011°42'611.6
2017-Oct-16 16:30N 56°57' E 011°45'711.3
2017-Oct-16 15:56N 56°51' E 011°49'810.0
2017-Oct-16 15:07N 56°43' E 011°51'311.0
2017-Oct-16 14:50N 56°40' E 011°48'1011.6
2017-Oct-16 13:58N 56°32' E 011°39'6610.9
2017-Oct-16 07:57N 55°32' E 010°52'511.3
2017-Oct-16 07:30N 55°27' E 010°56'710.3
2017-Oct-16 06:46N 55°21' E 011°02'3 8.8
2017-Oct-16 06:28N 55°18' E 011°03'610.7
2017-Oct-16 05:56N 55°13' E 011°06'511.8
2017-Oct-16 05:31N 55°09' E 011°00'612.2
2017-Oct-16 05:01N 55°03' E 010°60'612.2
2017-Oct-16 04:31N 54°58' E 010°56'612.8
2017-Oct-16 04:01N 54°52' E 010°50'612.6
2017-Oct-16 03:31N 54°46' E 010°48'5 9.4
2017-Oct-16 03:01N 54°41' E 010°47'4 8.7
2017-Oct-16 02:31N 54°39' E 010°52'611.4
2017-Oct-16 02:01N 54°36' E 011°01'611.5
2017-Oct-16 01:30N 54°35' E 011°11'611.6
2017-Oct-16 01:01N 54°33' E 011°20'611.3
2017-Oct-16 00:31N 54°31' E 011°29'611.8
2017-Oct-16 00:00N 54°28' E 011°38'611.7
2017-Oct-15 23:31N 54°26' E 011°48'711.8
2017-Oct-15 22:58N 54°27' E 011°59'510.8
2017-Oct-15 22:31N 54°27' E 012°07'5 9.1
2017-Oct-15 22:00N 54°30' E 012°13'510.1
2017-Oct-15 21:31N 54°35' E 012°16'4 7.7
2017-Oct-15 21:01N 54°38' E 012°20'4 7.5
2017-Oct-15 20:31N 54°40' E 012°25'3 6.4
2017-Oct-15 20:01N 54°41' E 012°30'4 7.9
2017-Oct-15 19:28N 54°44' E 012°36'4 7.7
2017-Oct-15 19:01N 54°46' E 012°41'5 9.5
2017-Oct-15 18:27N 54°48' E 012°50'511.7
2017-Oct-15 18:00N 54°49' E 012°58'611.8
2017-Oct-15 17:31N 54°52' E 013°08'611.6
2017-Oct-15 16:59N 54°54' E 013°18'611.4
2017-Oct-15 16:29N 54°56' E 013°27'611.2
2017-Oct-15 15:55N 54°58' E 013°37'510.8
2017-Oct-15 15:30N 54°60' E 013°45'811.3
2017-Oct-15 14:51N 55°02' E 013°57'1211.4
2017-Oct-15 13:49N 55°10' E 014°13'411.7
2017-Oct-15 13:29N 55°13' E 014°17'611.7
2017-Oct-15 13:00N 55°17' E 014°23'611.8
2017-Oct-15 12:30N 55°22' E 014°29'611.9
2017-Oct-15 12:00N 55°26' E 014°36'611.6
2017-Oct-15 11:30N 55°29' E 014°45'611.6
2017-Oct-15 11:01N 55°32' E 014°54'611.7
2017-Oct-15 10:31N 55°34' E 015°03'611.7
2017-Oct-15 10:01N 55°37' E 015°12'611.8
2017-Oct-15 09:31N 55°39' E 015°23'611.6
2017-Oct-15 09:00N 55°40' E 015°32'611.6
2017-Oct-15 08:30N 55°42' E 015°42'611.7
2017-Oct-15 08:01N 55°43' E 015°53'611.7
2017-Oct-15 07:30N 55°45' E 016°03'611.6
2017-Oct-15 07:01N 55°46' E 016°13'611.4
2017-Oct-15 06:30N 55°47' E 016°22'611.3
2017-Oct-15 06:01N 55°49' E 016°32'611.3
2017-Oct-15 05:30N 55°50' E 016°42'611.3
2017-Oct-15 05:00N 55°51' E 016°52'611.3
2017-Oct-15 04:30N 55°53' E 017°02'611.4
2017-Oct-15 04:00N 55°54' E 017°11'811.1
2017-Oct-15 03:19N 55°56' E 017°25'2111.2
2017-Oct-15 01:25N 56°06' E 017°59'  
2017-Oct-10 06:20N 55°39' E 015°41'3 7.8
2017-Oct-10 06:00N 55°38' E 015°38'611.2
2017-Oct-10 05:31N 55°35' E 015°29'611.9
2017-Oct-10 05:01N 55°32' E 015°20'3 5.1
2017-Oct-10 04:29N 55°31' E 015°17'1 1.2
2017-Oct-10 03:59N 55°31' E 015°16'1 1.2
2017-Oct-10 03:29N 55°31' E 015°15'1 1.2
2017-Oct-10 02:59N 55°31' E 015°14'1 1.2
2017-Oct-10 02:29N 55°32' E 015°13'1 1.2
2017-Oct-10 01:59N 55°32' E 015°12'1 1.3
2017-Oct-10 01:29N 55°32' E 015°11'1 1.3
2017-Oct-10 00:59N 55°32' E 015°09'1 1.3
2017-Oct-10 00:29N 55°33' E 015°08'1 1.4
2017-Oct-10 00:00N 55°32' E 015°07'4 7.6
2017-Oct-09 23:31N 55°31' E 015°01'5 9.3
2017-Oct-09 23:00N 55°28' E 014°54'5 9.3
2017-Oct-09 22:30N 55°26' E 014°47'5 9.4
2017-Oct-09 22:00N 55°24' E 014°40'5 9.2
2017-Oct-09 21:30N 55°20' E 014°34'5 9.2
2017-Oct-09 21:01N 55°17' E 014°29'  

Dump ship's entire track history